Admiral — WCY6529 — position and weather

sailwx.info

Track history (hours):
 
Tides and Currents Weather Stations Pressure Air Temp Water Temp Dewpoint Dewpoint Depression Visibility Wind Speed Wind Dir Waves Ship Positions

Admiral

Owner: Crowley Marine Services, SEATTLE, WA. More information available from US FCC via Universal Licensing System and Coast Guard Vessel Documentation Center.

Last reported at 2017-Mar-25 23:34 UTC. Time now 2017-Mar-25 23:46 UTC.
Position N 33°45' W 118°17'.

; draft 5.3 m.

Type: Tug. MMSI: 366755020.

Date/timePositionNaut miles runAvg speedWind from/ knotsBaromVisibWave heightAir tempDewpointWater temp
2017-Mar-25 23:34N 33°45' W 118°17'3 1.4
2017-Mar-25 21:33N 33°45' W 118°13'2 1.8
2017-Mar-25 20:33N 33°44' W 118°12'4 0.5
2017-Mar-25 12:29N 33°44' W 118°17'0 0.0
2017-Mar-25 11:32N 33°44' W 118°17'1 0.9
2017-Mar-25 10:34N 33°45' W 118°16'1 0.5
2017-Mar-25 09:33N 33°46' W 118°16'1 1.4
2017-Mar-25 08:33N 33°44' W 118°17'0 0.0
2017-Mar-25 07:20N 33°44' W 118°17'0 0.0
2017-Mar-25 06:32N 33°44' W 118°17'0 0.0
2017-Mar-25 05:33N 33°44' W 118°17'0 0.0
2017-Mar-25 04:31N 33°44' W 118°17'1 1.0
2017-Mar-25 03:33N 33°45' W 118°16'0 0.1
2017-Mar-25 02:29N 33°45' W 118°16'0 0.5
2017-Mar-25 01:33N 33°45' W 118°16'1 0.5
2017-Mar-25 00:33N 33°46' W 118°15'3 3.0
2017-Mar-24 23:33N 33°43' W 118°15'1 1.0
2017-Mar-24 22:33N 33°43' W 118°14'2 1.7
2017-Mar-24 21:33N 33°44' W 118°16'1 0.6
2017-Mar-24 20:33N 33°43' W 118°16'1 1.2
2017-Mar-24 19:33N 33°44' W 118°17'0 0.0
2017-Mar-24 18:33N 33°44' W 118°17'0 0.0
2017-Mar-24 17:07N 33°44' W 118°17'3 4.8
2017-Mar-24 16:33N 33°44' W 118°14'2 1.2
2017-Mar-24 14:30N 33°46' W 118°13'2 2.1
2017-Mar-24 13:33N 33°44' W 118°13'2 2.3
2017-Mar-24 12:34N 33°42' W 118°12'4 4.4
2017-Mar-24 11:33N 33°44' W 118°17'0 0.0
2017-Mar-24 10:33N 33°44' W 118°17'0 0.0
2017-Mar-24 09:33N 33°44' W 118°17'0 0.0
2017-Mar-24 08:11N 33°44' W 118°17'0 0.0
2017-Mar-24 06:23N 33°44' W 118°17'1 0.4
2017-Mar-24 04:31N 33°45' W 118°16'3 2.7
2017-Mar-24 03:32N 33°43' W 118°14'2 0.7
2017-Mar-24 00:28N 33°45' W 118°13'1 1.3
2017-Mar-23 23:28N 33°46' W 118°14'1 1.2
2017-Mar-23 22:32N 33°45' W 118°13'0 0.0
2017-Mar-23 21:33N 33°45' W 118°13'0 0.0
2017-Mar-23 20:33N 33°45' W 118°13'0 0.0
2017-Mar-23 19:32N 33°45' W 118°13'0 0.0
2017-Mar-23 18:29N 33°45' W 118°13'3 0.4
2017-Mar-23 12:13N 33°44' W 118°16'1 0.1
2017-Mar-23 00:21N 33°44' W 118°16'4 2.0
2017-Mar-22 22:21N 33°46' W 118°13'0 0.4
2017-Mar-22 21:33N 33°46' W 118°13'4 3.6
2017-Mar-22 20:33N 33°43' W 118°11'3 2.8
2017-Mar-22 19:33N 33°42' W 118°08'7 0.4
2017-Mar-22 01:08N 33°44' W 118°17'1 2.5
2017-Mar-22 00:33N 33°45' W 118°16'1 0.7
2017-Mar-21 23:33N 33°45' W 118°16'1 1.1
2017-Mar-21 22:33N 33°46' W 118°16'2 1.6
2017-Mar-21 21:33N 33°44' W 118°17'0 0.0
2017-Mar-21 20:28N 33°44' W 118°17'0 0.0
2017-Mar-21 19:32N 33°44' W 118°17'0 0.0
2017-Mar-21 18:32N 33°44' W 118°17'0 0.0
2017-Mar-21 17:13N 33°44' W 118°17'0 0.0
2017-Mar-21 15:29N 33°44' W 118°17'0 0.1
2017-Mar-21 14:33N 33°44' W 118°17'2 1.4
2017-Mar-21 13:28N 33°43' W 118°16'3 3.0
2017-Mar-21 12:19N 33°46' W 118°14'3 2.4
2017-Mar-21 11:15N 33°44' W 118°12'3 3.4
2017-Mar-21 10:15N 33°43' W 118°16'1 1.3
2017-Mar-21 09:31N 33°44' W 118°17'0 0.0
2017-Mar-21 07:33N 33°44' W 118°17'0 0.0
2017-Mar-21 06:20N 33°44' W 118°17'2 0.5
2017-Mar-21 02:28N 33°46' W 118°15'1 0.3
2017-Mar-20 22:33N 33°46' W 118°16'3 0.4
2017-Mar-20 13:33N 33°43' W 118°14'2 1.9
2017-Mar-20 12:33N 33°44' W 118°12'1 0.7
2017-Mar-20 11:33N 33°45' W 118°13'0 0.2
2017-Mar-20 10:23N 33°45' W 118°13'0 0.2
2017-Mar-20 07:31N 33°45' W 118°13'0 0.0
2017-Mar-20 06:15N 33°45' W 118°13'0 0.1
2017-Mar-20 05:33N 33°45' W 118°13'2 2.3
2017-Mar-20 04:33N 33°44' W 118°11'4 3.6
2017-Mar-20 03:33N 33°44' W 118°16'0 0.4
2017-Mar-20 02:33N 33°44' W 118°15'1 0.7
2017-Mar-20 01:33N 33°43' W 118°16'1 1.3
2017-Mar-20 00:33N 33°44' W 118°17'0 0.0
2017-Mar-19 23:32N 33°44' W 118°17'0 0.0
2017-Mar-19 22:33N 33°44' W 118°17'0 0.0
2017-Mar-19 21:33N 33°44' W 118°17'0 0.1
2017-Mar-19 20:33N 33°44' W 118°17'1 0.8
2017-Mar-19 19:33N 33°45' W 118°16'1 0.8
2017-Mar-19 18:26N 33°44' W 118°17'0 0.0
2017-Mar-19 17:29N 33°44' W 118°17'0 0.0
2017-Mar-19 15:24N 33°44' W 118°17'0 0.0
2017-Mar-19 14:07N 33°44' W 118°17'0 0.0
2017-Mar-19 13:27N 33°44' W 118°17'0 0.0
2017-Mar-19 12:33N 33°44' W 118°17'0 0.3
2017-Mar-19 11:34N 33°45' W 118°17'2 2.0
2017-Mar-19 10:33N 33°43' W 118°15'2 1.9
2017-Mar-19 09:33N 33°44' W 118°17'0 0.0
2017-Mar-19 08:33N 33°44' W 118°17'0 0.0
2017-Mar-19 07:33N 33°44' W 118°17'0 0.0
2017-Mar-19 06:33N 33°44' W 118°17'0 0.0
2017-Mar-19 05:31N 33°44' W 118°17'0 0.0
2017-Mar-19 04:33N 33°44' W 118°17'0 0.0
2017-Mar-19 03:33N 33°44' W 118°17'0 0.0
2017-Mar-19 02:33N 33°44' W 118°17'0 0.0
2017-Mar-19 01:33N 33°44' W 118°17'0 0.0
2017-Mar-19 00:33N 33°44' W 118°17'0 0.0
2017-Mar-18 23:33N 33°44' W 118°17'0 0.0
2017-Mar-18 22:33N 33°44' W 118°17'0 0.0
2017-Mar-18 21:33N 33°44' W 118°17'0 0.0
2017-Mar-18 20:33N 33°44' W 118°17'0 0.0
2017-Mar-18 19:33N 33°44' W 118°17'0 0.0
2017-Mar-18 18:33N 33°44' W 118°17'0 0.0
2017-Mar-18 17:33N 33°44' W 118°17'2 1.8
2017-Mar-18 16:33N 33°43' W 118°16'2 2.0
2017-Mar-18 15:33N 33°44' W 118°13'1 1.0
2017-Mar-18 14:33N 33°44' W 118°12'2 1.7
2017-Mar-18 13:33N 33°43' W 118°11'4 4.2
2017-Mar-18 12:33N 33°46' W 118°13'3 3.0
2017-Mar-18 11:33N 33°43' W 118°12'4 4.4
2017-Mar-18 10:33N 33°46' W 118°16'0 0.3
2017-Mar-18 09:33N 33°46' W 118°17'1 1.1
2017-Mar-18 08:33N 33°44' W 118°17'0 0.0
2017-Mar-18 07:33N 33°44' W 118°17'0 0.0
2017-Mar-18 06:33N 33°44' W 118°17'0 0.0
2017-Mar-18 05:33N 33°44' W 118°17'0 0.0
2017-Mar-18 04:33N 33°44' W 118°17'0 0.0
2017-Mar-18 03:33N 33°44' W 118°17'3 2.6
2017-Mar-18 02:33N 33°43' W 118°14'3 3.0
2017-Mar-18 01:33N 33°46' W 118°13'1 1.4
2017-Mar-18 00:33N 33°45' W 118°13'0 0.0
2017-Mar-17 23:32N 33°45' W 118°13'0 0.0
2017-Mar-17 22:33N 33°45' W 118°13'0 0.0
2017-Mar-17 21:19N 33°45' W 118°13'0 0.0
2017-Mar-17 20:33N 33°45' W 118°13'0 0.0
2017-Mar-17 19:33N 33°45' W 118°13'0 0.0
2017-Mar-17 18:33N 33°45' W 118°13'0 0.0
2017-Mar-17 17:31N 33°45' W 118°13'0 0.2
2017-Mar-17 16:33N 33°45' W 118°13'1 0.6
2017-Mar-17 15:33N 33°46' W 118°13'3 3.2
2017-Mar-17 14:33N 33°44' W 118°17'0 0.3
2017-Mar-17 13:32N 33°44' W 118°17'0 0.0
2017-Mar-17 12:31N 33°44' W 118°17'2 2.6
2017-Mar-17 11:33N 33°43' W 118°14'2 2.0
2017-Mar-17 10:33N 33°44' W 118°12'2 1.7
2017-Mar-17 09:33N 33°43' W 118°14'3 2.8
2017-Mar-17 08:32N 33°44' W 118°17'0 0.0
2017-Mar-17 07:33N 33°44' W 118°17'0 0.0
2017-Mar-17 06:33N 33°44' W 118°17'0 0.0
2017-Mar-17 05:33N 33°44' W 118°17'0 0.0
2017-Mar-17 04:33N 33°44' W 118°17'0 0.0
2017-Mar-17 03:33N 33°44' W 118°17'0 0.0
2017-Mar-17 02:33N 33°44' W 118°17'0 0.0
2017-Mar-17 01:33N 33°44' W 118°17'1 1.3
2017-Mar-17 00:33N 33°46' W 118°16'0 0.1
2017-Mar-16 23:32N 33°46' W 118°16'3 3.4
2017-Mar-16 22:34N 33°44' W 118°13'1 0.6
2017-Mar-16 21:33N 33°44' W 118°12'3 3.0
2017-Mar-16 20:33N 33°43' W 118°16'1 1.5
2017-Mar-16 19:33N 33°44' W 118°17'0 0.0
2017-Mar-16 18:33N 33°44' W 118°17'0 0.0
2017-Mar-16 17:33N 33°44' W 118°17'0 0.0
2017-Mar-16 16:33N 33°44' W 118°17'3 2.6
2017-Mar-16 15:33N 33°43' W 118°14'2 2.4
2017-Mar-16 14:33N 33°45' W 118°13'1 1.3
2017-Mar-16 13:33N 33°44' W 118°12'0 0.5
2017-Mar-16 12:33N 33°45' W 118°12'1 1.0
2017-Mar-16 11:33N 33°45' W 118°13'0 0.0
2017-Mar-16 10:33N 33°45' W 118°13'0 0.2
2017-Mar-16 09:33N 33°45' W 118°13'0 0.0
2017-Mar-16 08:33N 33°45' W 118°13'0 0.0
2017-Mar-16 07:33N 33°45' W 118°13'0 0.0
2017-Mar-16 06:33N 33°45' W 118°13'0 0.0
2017-Mar-16 05:33N 33°45' W 118°13'1 1.3
2017-Mar-16 04:33N 33°46' W 118°13'0 0.0
2017-Mar-16 03:33N 33°46' W 118°13'2 2.2
2017-Mar-16 02:33N 33°44' W 118°12'1 1.0
2017-Mar-16 01:33N 33°44' W 118°11'4 4.2
2017-Mar-16 00:33N 33°44' W 118°17'  
Track history (hours):
 
Tides and Currents Weather Stations Pressure Air Temp Water Temp Dewpoint Dewpoint Depression Visibility Wind Speed Wind Dir Waves Ship Positions

Admiral

Owner: Crowley Marine Services, SEATTLE, WA. More information available from US FCC via Universal Licensing System and Coast Guard Vessel Documentation Center.

Last reported at 2017-Mar-25 23:34 UTC. Time now 2017-Mar-25 23:46 UTC.
Position N 33°45' W 118°17'.

; draft 5.3 m.

Type: Tug. MMSI: 366755020.

Date/timePositionNaut miles runAvg speedWind from/ knotsBaromVisibWave heightAir tempDewpointWater temp
2017-Mar-25 23:34N 33°45' W 118°17'3 1.4
2017-Mar-25 21:33N 33°45' W 118°13'2 1.8
2017-Mar-25 20:33N 33°44' W 118°12'4 0.5
2017-Mar-25 12:29N 33°44' W 118°17'0 0.0
2017-Mar-25 11:32N 33°44' W 118°17'1 0.9
2017-Mar-25 10:34N 33°45' W 118°16'1 0.5
2017-Mar-25 09:33N 33°46' W 118°16'1 1.4
2017-Mar-25 08:33N 33°44' W 118°17'0 0.0
2017-Mar-25 07:20N 33°44' W 118°17'0 0.0
2017-Mar-25 06:32N 33°44' W 118°17'0 0.0
2017-Mar-25 05:33N 33°44' W 118°17'0 0.0
2017-Mar-25 04:31N 33°44' W 118°17'1 1.0
2017-Mar-25 03:33N 33°45' W 118°16'0 0.1
2017-Mar-25 02:29N 33°45' W 118°16'0 0.5
2017-Mar-25 01:33N 33°45' W 118°16'1 0.5
2017-Mar-25 00:33N 33°46' W 118°15'3 3.0
2017-Mar-24 23:33N 33°43' W 118°15'1 1.0
2017-Mar-24 22:33N 33°43' W 118°14'2 1.7
2017-Mar-24 21:33N 33°44' W 118°16'1 0.6
2017-Mar-24 20:33N 33°43' W 118°16'1 1.2
2017-Mar-24 19:33N 33°44' W 118°17'0 0.0
2017-Mar-24 18:33N 33°44' W 118°17'0 0.0
2017-Mar-24 17:07N 33°44' W 118°17'3 4.8
2017-Mar-24 16:33N 33°44' W 118°14'2 1.2
2017-Mar-24 14:30N 33°46' W 118°13'2 2.1
2017-Mar-24 13:33N 33°44' W 118°13'2 2.3
2017-Mar-24 12:34N 33°42' W 118°12'4 4.4
2017-Mar-24 11:33N 33°44' W 118°17'0 0.0
2017-Mar-24 10:33N 33°44' W 118°17'0 0.0
2017-Mar-24 09:33N 33°44' W 118°17'0 0.0
2017-Mar-24 08:11N 33°44' W 118°17'0 0.0
2017-Mar-24 06:23N 33°44' W 118°17'1 0.4
2017-Mar-24 04:31N 33°45' W 118°16'3 2.7
2017-Mar-24 03:32N 33°43' W 118°14'2 0.7
2017-Mar-24 00:28N 33°45' W 118°13'1 1.3
2017-Mar-23 23:28N 33°46' W 118°14'1 1.2
2017-Mar-23 22:32N 33°45' W 118°13'0 0.0
2017-Mar-23 21:33N 33°45' W 118°13'0 0.0
2017-Mar-23 20:33N 33°45' W 118°13'0 0.0
2017-Mar-23 19:32N 33°45' W 118°13'0 0.0
2017-Mar-23 18:29N 33°45' W 118°13'3 0.4
2017-Mar-23 12:13N 33°44' W 118°16'1 0.1
2017-Mar-23 00:21N 33°44' W 118°16'4 2.0
2017-Mar-22 22:21N 33°46' W 118°13'0 0.4
2017-Mar-22 21:33N 33°46' W 118°13'4 3.6
2017-Mar-22 20:33N 33°43' W 118°11'3 2.8
2017-Mar-22 19:33N 33°42' W 118°08'7 0.4
2017-Mar-22 01:08N 33°44' W 118°17'1 2.5
2017-Mar-22 00:33N 33°45' W 118°16'1 0.7
2017-Mar-21 23:33N 33°45' W 118°16'1 1.1
2017-Mar-21 22:33N 33°46' W 118°16'2 1.6
2017-Mar-21 21:33N 33°44' W 118°17'0 0.0
2017-Mar-21 20:28N 33°44' W 118°17'0 0.0
2017-Mar-21 19:32N 33°44' W 118°17'0 0.0
2017-Mar-21 18:32N 33°44' W 118°17'0 0.0
2017-Mar-21 17:13N 33°44' W 118°17'0 0.0
2017-Mar-21 15:29N 33°44' W 118°17'0 0.1
2017-Mar-21 14:33N 33°44' W 118°17'2 1.4
2017-Mar-21 13:28N 33°43' W 118°16'3 3.0
2017-Mar-21 12:19N 33°46' W 118°14'3 2.4
2017-Mar-21 11:15N 33°44' W 118°12'3 3.4
2017-Mar-21 10:15N 33°43' W 118°16'1 1.3
2017-Mar-21 09:31N 33°44' W 118°17'0 0.0
2017-Mar-21 07:33N 33°44' W 118°17'0 0.0
2017-Mar-21 06:20N 33°44' W 118°17'2 0.5
2017-Mar-21 02:28N 33°46' W 118°15'1 0.3
2017-Mar-20 22:33N 33°46' W 118°16'3 0.4
2017-Mar-20 13:33N 33°43' W 118°14'2 1.9
2017-Mar-20 12:33N 33°44' W 118°12'1 0.7
2017-Mar-20 11:33N 33°45' W 118°13'0 0.2
2017-Mar-20 10:23N 33°45' W 118°13'0 0.2
2017-Mar-20 07:31N 33°45' W 118°13'0 0.0
2017-Mar-20 06:15N 33°45' W 118°13'0 0.1
2017-Mar-20 05:33N 33°45' W 118°13'2 2.3
2017-Mar-20 04:33N 33°44' W 118°11'4 3.6
2017-Mar-20 03:33N 33°44' W 118°16'0 0.4
2017-Mar-20 02:33N 33°44' W 118°15'1 0.7
2017-Mar-20 01:33N 33°43' W 118°16'1 1.3
2017-Mar-20 00:33N 33°44' W 118°17'0 0.0
2017-Mar-19 23:32N 33°44' W 118°17'0 0.0
2017-Mar-19 22:33N 33°44' W 118°17'0 0.0
2017-Mar-19 21:33N 33°44' W 118°17'0 0.1
2017-Mar-19 20:33N 33°44' W 118°17'1 0.8
2017-Mar-19 19:33N 33°45' W 118°16'1 0.8
2017-Mar-19 18:26N 33°44' W 118°17'0 0.0
2017-Mar-19 17:29N 33°44' W 118°17'0 0.0
2017-Mar-19 15:24N 33°44' W 118°17'0 0.0
2017-Mar-19 14:07N 33°44' W 118°17'0 0.0
2017-Mar-19 13:27N 33°44' W 118°17'0 0.0
2017-Mar-19 12:33N 33°44' W 118°17'0 0.3
2017-Mar-19 11:34N 33°45' W 118°17'2 2.0
2017-Mar-19 10:33N 33°43' W 118°15'2 1.9
2017-Mar-19 09:33N 33°44' W 118°17'0 0.0
2017-Mar-19 08:33N 33°44' W 118°17'0 0.0
2017-Mar-19 07:33N 33°44' W 118°17'0 0.0
2017-Mar-19 06:33N 33°44' W 118°17'0 0.0
2017-Mar-19 05:31N 33°44' W 118°17'0 0.0
2017-Mar-19 04:33N 33°44' W 118°17'0 0.0
2017-Mar-19 03:33N 33°44' W 118°17'0 0.0
2017-Mar-19 02:33N 33°44' W 118°17'0 0.0
2017-Mar-19 01:33N 33°44' W 118°17'0 0.0
2017-Mar-19 00:33N 33°44' W 118°17'0 0.0
2017-Mar-18 23:33N 33°44' W 118°17'0 0.0
2017-Mar-18 22:33N 33°44' W 118°17'0 0.0
2017-Mar-18 21:33N 33°44' W 118°17'0 0.0
2017-Mar-18 20:33N 33°44' W 118°17'0 0.0
2017-Mar-18 19:33N 33°44' W 118°17'0 0.0
2017-Mar-18 18:33N 33°44' W 118°17'0 0.0
2017-Mar-18 17:33N 33°44' W 118°17'2 1.8
2017-Mar-18 16:33N 33°43' W 118°16'2 2.0
2017-Mar-18 15:33N 33°44' W 118°13'1 1.0
2017-Mar-18 14:33N 33°44' W 118°12'2 1.7
2017-Mar-18 13:33N 33°43' W 118°11'4 4.2
2017-Mar-18 12:33N 33°46' W 118°13'3 3.0
2017-Mar-18 11:33N 33°43' W 118°12'4 4.4
2017-Mar-18 10:33N 33°46' W 118°16'0 0.3
2017-Mar-18 09:33N 33°46' W 118°17'1 1.1
2017-Mar-18 08:33N 33°44' W 118°17'0 0.0
2017-Mar-18 07:33N 33°44' W 118°17'0 0.0
2017-Mar-18 06:33N 33°44' W 118°17'0 0.0
2017-Mar-18 05:33N 33°44' W 118°17'0 0.0
2017-Mar-18 04:33N 33°44' W 118°17'0 0.0
2017-Mar-18 03:33N 33°44' W 118°17'3 2.6
2017-Mar-18 02:33N 33°43' W 118°14'3 3.0
2017-Mar-18 01:33N 33°46' W 118°13'1 1.4
2017-Mar-18 00:33N 33°45' W 118°13'0 0.0
2017-Mar-17 23:32N 33°45' W 118°13'0 0.0
2017-Mar-17 22:33N 33°45' W 118°13'0 0.0
2017-Mar-17 21:19N 33°45' W 118°13'0 0.0
2017-Mar-17 20:33N 33°45' W 118°13'0 0.0
2017-Mar-17 19:33N 33°45' W 118°13'0 0.0
2017-Mar-17 18:33N 33°45' W 118°13'0 0.0
2017-Mar-17 17:31N 33°45' W 118°13'0 0.2
2017-Mar-17 16:33N 33°45' W 118°13'1 0.6
2017-Mar-17 15:33N 33°46' W 118°13'3 3.2
2017-Mar-17 14:33N 33°44' W 118°17'0 0.3
2017-Mar-17 13:32N 33°44' W 118°17'0 0.0
2017-Mar-17 12:31N 33°44' W 118°17'2 2.6
2017-Mar-17 11:33N 33°43' W 118°14'2 2.0
2017-Mar-17 10:33N 33°44' W 118°12'2 1.7
2017-Mar-17 09:33N 33°43' W 118°14'3 2.8
2017-Mar-17 08:32N 33°44' W 118°17'0 0.0
2017-Mar-17 07:33N 33°44' W 118°17'0 0.0
2017-Mar-17 06:33N 33°44' W 118°17'0 0.0
2017-Mar-17 05:33N 33°44' W 118°17'0 0.0
2017-Mar-17 04:33N 33°44' W 118°17'0 0.0
2017-Mar-17 03:33N 33°44' W 118°17'0 0.0
2017-Mar-17 02:33N 33°44' W 118°17'0 0.0
2017-Mar-17 01:33N 33°44' W 118°17'1 1.3
2017-Mar-17 00:33N 33°46' W 118°16'0 0.1
2017-Mar-16 23:32N 33°46' W 118°16'3 3.4
2017-Mar-16 22:34N 33°44' W 118°13'1 0.6
2017-Mar-16 21:33N 33°44' W 118°12'3 3.0
2017-Mar-16 20:33N 33°43' W 118°16'1 1.5
2017-Mar-16 19:33N 33°44' W 118°17'0 0.0
2017-Mar-16 18:33N 33°44' W 118°17'0 0.0
2017-Mar-16 17:33N 33°44' W 118°17'0 0.0
2017-Mar-16 16:33N 33°44' W 118°17'3 2.6
2017-Mar-16 15:33N 33°43' W 118°14'2 2.4
2017-Mar-16 14:33N 33°45' W 118°13'1 1.3
2017-Mar-16 13:33N 33°44' W 118°12'0 0.5
2017-Mar-16 12:33N 33°45' W 118°12'1 1.0
2017-Mar-16 11:33N 33°45' W 118°13'0 0.0
2017-Mar-16 10:33N 33°45' W 118°13'0 0.2
2017-Mar-16 09:33N 33°45' W 118°13'0 0.0
2017-Mar-16 08:33N 33°45' W 118°13'0 0.0
2017-Mar-16 07:33N 33°45' W 118°13'0 0.0
2017-Mar-16 06:33N 33°45' W 118°13'0 0.0
2017-Mar-16 05:33N 33°45' W 118°13'1 1.3
2017-Mar-16 04:33N 33°46' W 118°13'0 0.0
2017-Mar-16 03:33N 33°46' W 118°13'2 2.2
2017-Mar-16 02:33N 33°44' W 118°12'1 1.0
2017-Mar-16 01:33N 33°44' W 118°11'4 4.2
2017-Mar-16 00:33N 33°44' W 118°17'  

Dump ship's entire track history